sensor_id;sensor_type;location;lat;lon;timestamp;P1;durP1;ratioP1;P2;durP2;ratioP2
47599;SDS011;33323;52.124;6.018;2023-11-21T00:01:16;45.05;;;19.35;;
47599;SDS011;33323;52.124;6.018;2023-11-21T00:03:43;59.95;;;20.33;;
47599;SDS011;33323;52.124;6.018;2023-11-21T00:06:10;45.83;;;17.90;;
47599;SDS011;33323;52.124;6.018;2023-11-21T00:08:38;43.63;;;17.75;;
47599;SDS011;33323;52.124;6.018;2023-11-21T00:11:05;44.90;;;17.63;;
47599;SDS011;33323;52.124;6.018;2023-11-21T00:13:32;42.88;;;18.60;;
47599;SDS011;33323;52.124;6.018;2023-11-21T00:15:59;42.33;;;17.48;;
47599;SDS011;33323;52.124;6.018;2023-11-21T00:18:26;50.70;;;19.00;;
47599;SDS011;33323;52.124;6.018;2023-11-21T00:20:53;44.40;;;18.83;;
47599;SDS011;33323;52.124;6.018;2023-11-21T00:23:20;39.63;;;17.40;;
47599;SDS011;33323;52.124;6.018;2023-11-21T00:25:47;44.53;;;18.17;;
47599;SDS011;33323;52.124;6.018;2023-11-21T00:28:14;44.42;;;19.10;;
47599;SDS011;33323;52.124;6.018;2023-11-21T00:30:41;55.30;;;20.67;;
47599;SDS011;33323;52.124;6.018;2023-11-21T00:33:08;52.63;;;18.05;;
47599;SDS011;33323;52.124;6.018;2023-11-21T00:35:35;43.50;;;17.80;;
47599;SDS011;33323;52.124;6.018;2023-11-21T00:38:02;51.50;;;20.67;;
47599;SDS011;33323;52.124;6.018;2023-11-21T00:40:31;46.80;;;18.48;;
47599;SDS011;33323;52.124;6.018;2023-11-21T00:43:00;49.75;;;18.30;;
47599;SDS011;33323;52.124;6.018;2023-11-21T00:45:30;55.47;;;19.75;;
47599;SDS011;33323;52.124;6.018;2023-11-21T00:47:57;48.78;;;19.02;;
47599;SDS011;33323;52.124;6.018;2023-11-21T00:50:25;47.35;;;18.73;;
47599;SDS011;33323;52.124;6.018;2023-11-21T00:52:55;41.72;;;18.15;;
47599;SDS011;33323;52.124;6.018;2023-11-21T00:55:22;49.10;;;19.42;;
47599;SDS011;33323;52.124;6.018;2023-11-21T00:57:50;44.42;;;17.65;;
47599;SDS011;33323;52.124;6.018;2023-11-21T01:00:17;52.03;;;19.25;;
47599;SDS011;33323;52.124;6.018;2023-11-21T01:02:44;60.60;;;21.75;;
47599;SDS011;33323;52.124;6.018;2023-11-21T01:05:11;49.58;;;19.35;;
47599;SDS011;33323;52.124;6.018;2023-11-21T01:07:39;42.47;;;17.65;;
47599;SDS011;33323;52.124;6.018;2023-11-21T01:10:06;43.28;;;17.15;;
47599;SDS011;33323;52.124;6.018;2023-11-21T01:12:34;46.33;;;17.15;;
47599;SDS011;33323;52.124;6.018;2023-11-21T01:15:04;36.75;;;16.50;;
47599;SDS011;33323;52.124;6.018;2023-11-21T01:17:38;51.30;;;18.83;;
47599;SDS011;33323;52.124;6.018;2023-11-21T01:20:06;40.83;;;16.80;;
47599;SDS011;33323;52.124;6.018;2023-11-21T01:22:39;41.20;;;16.95;;
47599;SDS011;33323;52.124;6.018;2023-11-21T01:25:06;41.42;;;17.83;;
47599;SDS011;33323;52.124;6.018;2023-11-21T01:27:34;39.70;;;17.25;;
47599;SDS011;33323;52.124;6.018;2023-11-21T01:30:02;42.88;;;18.70;;
47599;SDS011;33323;52.124;6.018;2023-11-21T01:32:29;38.80;;;17.27;;
47599;SDS011;33323;52.124;6.018;2023-11-21T01:34:57;47.83;;;19.10;;
47599;SDS011;33323;52.124;6.018;2023-11-21T01:37:25;46.80;;;19.50;;
47599;SDS011;33323;52.124;6.018;2023-11-21T01:39:54;51.58;;;19.85;;
47599;SDS011;33323;52.124;6.018;2023-11-21T01:42:22;47.97;;;18.58;;
47599;SDS011;33323;52.124;6.018;2023-11-21T01:44:49;47.95;;;17.20;;
47599;SDS011;33323;52.124;6.018;2023-11-21T01:47:16;42.70;;;18.42;;
47599;SDS011;33323;52.124;6.018;2023-11-21T01:49:43;41.20;;;18.23;;
47599;SDS011;33323;52.124;6.018;2023-11-21T01:52:12;45.55;;;16.85;;
47599;SDS011;33323;52.124;6.018;2023-11-21T01:54:39;50.97;;;19.08;;
47599;SDS011;33323;52.124;6.018;2023-11-21T01:57:07;42.85;;;16.67;;
47599;SDS011;33323;52.124;6.018;2023-11-21T01:59:35;37.22;;;16.73;;
47599;SDS011;33323;52.124;6.018;2023-11-21T02:02:04;44.25;;;16.80;;
47599;SDS011;33323;52.124;6.018;2023-11-21T02:04:33;43.45;;;17.48;;
47599;SDS011;33323;52.124;6.018;2023-11-21T02:07:02;45.85;;;18.67;;
47599;SDS011;33323;52.124;6.018;2023-11-21T02:09:32;34.53;;;17.25;;
47599;SDS011;33323;52.124;6.018;2023-11-21T02:12:00;47.80;;;17.02;;
47599;SDS011;33323;52.124;6.018;2023-11-21T02:14:29;46.97;;;18.23;;
47599;SDS011;33323;52.124;6.018;2023-11-21T02:16:57;46.63;;;16.83;;
47599;SDS011;33323;52.124;6.018;2023-11-21T02:19:24;49.63;;;18.13;;
47599;SDS011;33323;52.124;6.018;2023-11-21T02:21:57;47.65;;;17.88;;
47599;SDS011;33323;52.124;6.018;2023-11-21T02:24:27;41.75;;;17.42;;
47599;SDS011;33323;52.124;6.018;2023-11-21T02:26:54;53.00;;;17.38;;
47599;SDS011;33323;52.124;6.018;2023-11-21T02:29:21;43.33;;;15.65;;
47599;SDS011;33323;52.124;6.018;2023-11-21T02:31:50;41.33;;;16.65;;
47599;SDS011;33323;52.124;6.018;2023-11-21T02:34:18;39.00;;;17.08;;
47599;SDS011;33323;52.124;6.018;2023-11-21T02:36:45;43.55;;;17.48;;
47599;SDS011;33323;52.124;6.018;2023-11-21T02:39:15;37.83;;;16.58;;
47599;SDS011;33323;52.124;6.018;2023-11-21T02:41:43;36.58;;;16.10;;
47599;SDS011;33323;52.124;6.018;2023-11-21T02:44:11;41.03;;;17.95;;
47599;SDS011;33323;52.124;6.018;2023-11-21T02:46:38;31.98;;;15.65;;
47599;SDS011;33323;52.124;6.018;2023-11-21T02:49:05;38.83;;;15.75;;
47599;SDS011;33323;52.124;6.018;2023-11-21T02:51:33;34.00;;;15.45;;
47599;SDS011;33323;52.124;6.018;2023-11-21T02:54:00;30.83;;;15.27;;
47599;SDS011;33323;52.124;6.018;2023-11-21T02:56:29;38.25;;;16.42;;
47599;SDS011;33323;52.124;6.018;2023-11-21T02:58:56;36.63;;;14.75;;
47599;SDS011;33323;52.124;6.018;2023-11-21T03:01:23;31.63;;;15.32;;
47599;SDS011;33323;52.124;6.018;2023-11-21T03:03:51;39.72;;;16.33;;
47599;SDS011;33323;52.124;6.018;2023-11-21T03:06:19;35.22;;;15.68;;
47599;SDS011;33323;52.124;6.018;2023-11-21T03:08:46;31.90;;;16.20;;
47599;SDS011;33323;52.124;6.018;2023-11-21T03:11:14;37.53;;;16.17;;
47599;SDS011;33323;52.124;6.018;2023-11-21T03:13:41;29.33;;;15.18;;
47599;SDS011;33323;52.124;6.018;2023-11-21T03:16:09;38.17;;;16.17;;
47599;SDS011;33323;52.124;6.018;2023-11-21T03:18:37;33.13;;;16.02;;
47599;SDS011;33323;52.124;6.018;2023-11-21T03:21:05;33.25;;;14.68;;
47599;SDS011;33323;52.124;6.018;2023-11-21T03:23:35;31.55;;;14.23;;
47599;SDS011;33323;52.124;6.018;2023-11-21T03:26:03;26.63;;;13.98;;
47599;SDS011;33323;52.124;6.018;2023-11-21T03:28:30;34.17;;;13.50;;
47599;SDS011;33323;52.124;6.018;2023-11-21T03:30:57;36.05;;;16.50;;
47599;SDS011;33323;52.124;6.018;2023-11-21T03:33:24;36.50;;;15.23;;
47599;SDS011;33323;52.124;6.018;2023-11-21T03:35:51;33.53;;;14.57;;
47599;SDS011;33323;52.124;6.018;2023-11-21T03:38:19;33.67;;;13.00;;
47599;SDS011;33323;52.124;6.018;2023-11-21T03:40:46;34.33;;;15.48;;
47599;SDS011;33323;52.124;6.018;2023-11-21T03:43:14;35.05;;;12.75;;
47599;SDS011;33323;52.124;6.018;2023-11-21T03:45:41;37.30;;;14.30;;
47599;SDS011;33323;52.124;6.018;2023-11-21T03:48:09;33.65;;;13.52;;
47599;SDS011;33323;52.124;6.018;2023-11-21T03:50:38;27.10;;;14.30;;
47599;SDS011;33323;52.124;6.018;2023-11-21T03:53:05;37.50;;;13.77;;
47599;SDS011;33323;52.124;6.018;2023-11-21T03:55:32;33.35;;;13.23;;
47599;SDS011;33323;52.124;6.018;2023-11-21T03:58:00;29.75;;;11.95;;
47599;SDS011;33323;52.124;6.018;2023-11-21T04:00:27;31.98;;;12.95;;
47599;SDS011;33323;52.124;6.018;2023-11-21T04:02:54;40.85;;;15.13;;
47599;SDS011;33323;52.124;6.018;2023-11-21T04:05:23;26.65;;;11.52;;
47599;SDS011;33323;52.124;6.018;2023-11-21T04:07:50;41.55;;;14.20;;
47599;SDS011;33323;52.124;6.018;2023-11-21T04:10:17;34.55;;;13.77;;
47599;SDS011;33323;52.124;6.018;2023-11-21T04:12:45;33.05;;;13.25;;
47599;SDS011;33323;52.124;6.018;2023-11-21T04:15:12;30.52;;;12.35;;
47599;SDS011;33323;52.124;6.018;2023-11-21T04:17:41;27.05;;;13.38;;
47599;SDS011;33323;52.124;6.018;2023-11-21T04:20:08;34.63;;;12.98;;
47599;SDS011;33323;52.124;6.018;2023-11-21T04:22:39;30.48;;;12.13;;
47599;SDS011;33323;52.124;6.018;2023-11-21T04:25:08;28.65;;;12.40;;
47599;SDS011;33323;52.124;6.018;2023-11-21T04:27:40;25.33;;;10.98;;
47599;SDS011;33323;52.124;6.018;2023-11-21T04:30:11;24.20;;;11.80;;
47599;SDS011;33323;52.124;6.018;2023-11-21T04:32:39;24.50;;;11.52;;
47599;SDS011;33323;52.124;6.018;2023-11-21T04:35:09;26.88;;;12.68;;
47599;SDS011;33323;52.124;6.018;2023-11-21T04:37:36;30.92;;;11.38;;
47599;SDS011;33323;52.124;6.018;2023-11-21T04:40:03;29.20;;;11.02;;
47599;SDS011;33323;52.124;6.018;2023-11-21T04:42:37;29.80;;;11.88;;
47599;SDS011;33323;52.124;6.018;2023-11-21T04:45:04;25.98;;;10.23;;
47599;SDS011;33323;52.124;6.018;2023-11-21T04:47:36;31.85;;;11.43;;
47599;SDS011;33323;52.124;6.018;2023-11-21T04:50:04;27.95;;;10.57;;
47599;SDS011;33323;52.124;6.018;2023-11-21T04:52:32;26.45;;;11.02;;
47599;SDS011;33323;52.124;6.018;2023-11-21T04:54:59;23.83;;;10.23;;
47599;SDS011;33323;52.124;6.018;2023-11-21T04:57:28;33.53;;;11.05;;
47599;SDS011;33323;52.124;6.018;2023-11-21T04:59:55;31.35;;;11.40;;
47599;SDS011;33323;52.124;6.018;2023-11-21T05:02:22;30.77;;;10.88;;
47599;SDS011;33323;52.124;6.018;2023-11-21T05:05:03;27.45;;;12.43;;
47599;SDS011;33323;52.124;6.018;2023-11-21T05:07:32;36.72;;;11.07;;
47599;SDS011;33323;52.124;6.018;2023-11-21T05:10:03;39.08;;;13.55;;
47599;SDS011;33323;52.124;6.018;2023-11-21T05:12:37;30.25;;;11.05;;
47599;SDS011;33323;52.124;6.018;2023-11-21T05:15:05;27.65;;;10.70;;
47599;SDS011;33323;52.124;6.018;2023-11-21T05:17:39;32.95;;;11.35;;
47599;SDS011;33323;52.124;6.018;2023-11-21T05:20:11;33.55;;;11.05;;
47599;SDS011;33323;52.124;6.018;2023-11-21T05:22:40;37.47;;;11.02;;
47599;SDS011;33323;52.124;6.018;2023-11-21T05:25:08;31.63;;;11.02;;
47599;SDS011;33323;52.124;6.018;2023-11-21T05:27:36;34.58;;;10.95;;
47599;SDS011;33323;52.124;6.018;2023-11-21T05:30:03;43.42;;;13.95;;
47599;SDS011;33323;52.124;6.018;2023-11-21T05:32:32;38.33;;;13.32;;
47599;SDS011;33323;52.124;6.018;2023-11-21T05:35:00;34.25;;;12.93;;
47599;SDS011;33323;52.124;6.018;2023-11-21T05:37:27;36.17;;;13.50;;
47599;SDS011;33323;52.124;6.018;2023-11-21T05:39:55;31.88;;;12.88;;
47599;SDS011;33323;52.124;6.018;2023-11-21T05:42:26;44.78;;;14.45;;
47599;SDS011;33323;52.124;6.018;2023-11-21T05:44:53;33.53;;;14.32;;
47599;SDS011;33323;52.124;6.018;2023-11-21T05:47:20;35.40;;;13.45;;
47599;SDS011;33323;52.124;6.018;2023-11-21T05:49:48;38.95;;;14.40;;
47599;SDS011;33323;52.124;6.018;2023-11-21T05:52:17;38.20;;;13.65;;
47599;SDS011;33323;52.124;6.018;2023-11-21T05:54:44;41.50;;;17.60;;
47599;SDS011;33323;52.124;6.018;2023-11-21T05:57:12;40.17;;;15.43;;
47599;SDS011;33323;52.124;6.018;2023-11-21T05:59:39;39.13;;;14.63;;
47599;SDS011;33323;52.124;6.018;2023-11-21T06:02:26;39.25;;;14.73;;
47599;SDS011;33323;52.124;6.018;2023-11-21T06:04:53;47.20;;;15.68;;
47599;SDS011;33323;52.124;6.018;2023-11-21T06:07:21;41.63;;;14.55;;
47599;SDS011;33323;52.124;6.018;2023-11-21T06:09:48;45.83;;;16.63;;
47599;SDS011;33323;52.124;6.018;2023-11-21T06:12:16;45.15;;;16.92;;
47599;SDS011;33323;52.124;6.018;2023-11-21T06:14:43;40.85;;;15.98;;
47599;SDS011;33323;52.124;6.018;2023-11-21T06:17:10;48.30;;;17.77;;
47599;SDS011;33323;52.124;6.018;2023-11-21T06:19:37;48.45;;;18.23;;
47599;SDS011;33323;52.124;6.018;2023-11-21T06:22:05;43.47;;;15.40;;
47599;SDS011;33323;52.124;6.018;2023-11-21T06:24:32;41.00;;;16.65;;
47599;SDS011;33323;52.124;6.018;2023-11-21T06:26:59;36.75;;;16.20;;
47599;SDS011;33323;52.124;6.018;2023-11-21T06:29:26;44.63;;;16.08;;
47599;SDS011;33323;52.124;6.018;2023-11-21T06:31:53;42.67;;;15.95;;
47599;SDS011;33323;52.124;6.018;2023-11-21T06:34:21;30.45;;;13.98;;
47599;SDS011;33323;52.124;6.018;2023-11-21T06:36:48;35.75;;;13.90;;
47599;SDS011;33323;52.124;6.018;2023-11-21T06:39:15;39.38;;;15.68;;
47599;SDS011;33323;52.124;6.018;2023-11-21T06:41:43;33.10;;;14.90;;
47599;SDS011;33323;52.124;6.018;2023-11-21T06:44:10;44.80;;;16.90;;
47599;SDS011;33323;52.124;6.018;2023-11-21T06:46:37;39.72;;;16.27;;
47599;SDS011;33323;52.124;6.018;2023-11-21T06:49:08;42.53;;;15.30;;
47599;SDS011;33323;52.124;6.018;2023-11-21T06:51:36;39.03;;;16.00;;
47599;SDS011;33323;52.124;6.018;2023-11-21T06:54:03;43.00;;;15.85;;
47599;SDS011;33323;52.124;6.018;2023-11-21T06:56:30;44.33;;;18.10;;
47599;SDS011;33323;52.124;6.018;2023-11-21T06:58:57;41.38;;;17.30;;
47599;SDS011;33323;52.124;6.018;2023-11-21T07:01:24;34.88;;;15.50;;
47599;SDS011;33323;52.124;6.018;2023-11-21T07:03:51;41.10;;;15.85;;
47599;SDS011;33323;52.124;6.018;2023-11-21T07:06:18;43.58;;;17.00;;
47599;SDS011;33323;52.124;6.018;2023-11-21T07:08:45;32.65;;;14.52;;
47599;SDS011;33323;52.124;6.018;2023-11-21T07:11:13;33.45;;;15.23;;
47599;SDS011;33323;52.124;6.018;2023-11-21T07:13:40;33.45;;;15.55;;
47599;SDS011;33323;52.124;6.018;2023-11-21T07:16:07;41.85;;;17.02;;
47599;SDS011;33323;52.124;6.018;2023-11-21T07:18:35;46.35;;;18.80;;
47599;SDS011;33323;52.124;6.018;2023-11-21T07:21:02;43.20;;;18.02;;
47599;SDS011;33323;52.124;6.018;2023-11-21T07:23:30;37.25;;;15.40;;
47599;SDS011;33323;52.124;6.018;2023-11-21T07:25:57;39.60;;;15.65;;
47599;SDS011;33323;52.124;6.018;2023-11-21T07:28:24;30.27;;;14.48;;
47599;SDS011;33323;52.124;6.018;2023-11-21T07:30:52;38.00;;;15.93;;
47599;SDS011;33323;52.124;6.018;2023-11-21T07:33:19;43.10;;;15.50;;
47599;SDS011;33323;52.124;6.018;2023-11-21T07:35:48;35.92;;;15.35;;
47599;SDS011;33323;52.124;6.018;2023-11-21T07:38:15;46.53;;;16.63;;
47599;SDS011;33323;52.124;6.018;2023-11-21T07:40:42;38.90;;;16.55;;
47599;SDS011;33323;52.124;6.018;2023-11-21T07:43:09;36.83;;;15.40;;
47599;SDS011;33323;52.124;6.018;2023-11-21T07:45:36;39.25;;;16.17;;
47599;SDS011;33323;52.124;6.018;2023-11-21T07:48:04;33.45;;;14.63;;
47599;SDS011;33323;52.124;6.018;2023-11-21T07:50:33;33.13;;;15.43;;
47599;SDS011;33323;52.124;6.018;2023-11-21T07:53:00;31.67;;;14.55;;
47599;SDS011;33323;52.124;6.018;2023-11-21T07:55:27;33.88;;;15.98;;
47599;SDS011;33323;52.124;6.018;2023-11-21T07:57:58;35.78;;;16.77;;
47599;SDS011;33323;52.124;6.018;2023-11-21T08:00:25;42.22;;;16.77;;
47599;SDS011;33323;52.124;6.018;2023-11-21T08:02:56;41.85;;;18.48;;
47599;SDS011;33323;52.124;6.018;2023-11-21T08:05:24;37.33;;;16.15;;
47599;SDS011;33323;52.124;6.018;2023-11-21T08:08:02;44.00;;;17.20;;
47599;SDS011;33323;52.124;6.018;2023-11-21T08:10:29;46.60;;;18.27;;
47599;SDS011;33323;52.124;6.018;2023-11-21T08:12:57;41.88;;;16.58;;
47599;SDS011;33323;52.124;6.018;2023-11-21T08:15:24;39.38;;;17.50;;
47599;SDS011;33323;52.124;6.018;2023-11-21T08:17:51;47.17;;;18.63;;
47599;SDS011;33323;52.124;6.018;2023-11-21T08:20:19;46.08;;;19.48;;
47599;SDS011;33323;52.124;6.018;2023-11-21T08:22:46;43.70;;;17.50;;
47599;SDS011;33323;52.124;6.018;2023-11-21T08:25:15;48.10;;;18.25;;
47599;SDS011;33323;52.124;6.018;2023-11-21T08:27:46;57.25;;;20.77;;
47599;SDS011;33323;52.124;6.018;2023-11-21T08:30:13;56.92;;;21.40;;
47599;SDS011;33323;52.124;6.018;2023-11-21T08:32:40;51.97;;;21.30;;
47599;SDS011;33323;52.124;6.018;2023-11-21T08:35:08;51.65;;;22.75;;
47599;SDS011;33323;52.124;6.018;2023-11-21T08:37:35;52.25;;;20.90;;
47599;SDS011;33323;52.124;6.018;2023-11-21T08:40:05;54.72;;;19.55;;
47599;SDS011;33323;52.124;6.018;2023-11-21T08:42:38;45.15;;;19.33;;
47599;SDS011;33323;52.124;6.018;2023-11-21T08:45:06;54.38;;;20.10;;
47599;SDS011;33323;52.124;6.018;2023-11-21T08:47:35;53.97;;;23.17;;
47599;SDS011;33323;52.124;6.018;2023-11-21T08:50:03;63.28;;;21.92;;
47599;SDS011;33323;52.124;6.018;2023-11-21T08:52:32;64.57;;;22.15;;
47599;SDS011;33323;52.124;6.018;2023-11-21T08:55:04;62.40;;;22.48;;
47599;SDS011;33323;52.124;6.018;2023-11-21T08:57:35;55.15;;;22.63;;
47599;SDS011;33323;52.124;6.018;2023-11-21T09:00:03;61.80;;;23.25;;
47599;SDS011;33323;52.124;6.018;2023-11-21T09:02:34;54.33;;;22.70;;
47599;SDS011;33323;52.124;6.018;2023-11-21T09:05:04;56.75;;;23.42;;
47599;SDS011;33323;52.124;6.018;2023-11-21T09:07:36;52.28;;;20.10;;
47599;SDS011;33323;52.124;6.018;2023-11-21T09:10:04;57.00;;;22.58;;
47599;SDS011;33323;52.124;6.018;2023-11-21T09:12:34;66.63;;;22.48;;
47599;SDS011;33323;52.124;6.018;2023-11-21T09:15:02;57.45;;;21.38;;
47599;SDS011;33323;52.124;6.018;2023-11-21T09:17:34;52.85;;;20.85;;
47599;SDS011;33323;52.124;6.018;2023-11-21T09:20:02;52.42;;;21.33;;
47599;SDS011;33323;52.124;6.018;2023-11-21T09:22:32;61.10;;;23.45;;
47599;SDS011;33323;52.124;6.018;2023-11-21T09:24:59;57.90;;;22.13;;
47599;SDS011;33323;52.124;6.018;2023-11-21T09:27:27;53.85;;;21.58;;
47599;SDS011;33323;52.124;6.018;2023-11-21T09:29:54;55.33;;;20.52;;
47599;SDS011;33323;52.124;6.018;2023-11-21T09:32:21;56.67;;;21.50;;
47599;SDS011;33323;52.124;6.018;2023-11-21T09:34:49;52.95;;;20.75;;
47599;SDS011;33323;52.124;6.018;2023-11-21T09:37:16;56.95;;;20.40;;
47599;SDS011;33323;52.124;6.018;2023-11-21T09:39:44;54.33;;;22.05;;
47599;SDS011;33323;52.124;6.018;2023-11-21T09:42:21;55.28;;;22.25;;
47599;SDS011;33323;52.124;6.018;2023-11-21T09:47:55;50.42;;;20.45;;
47599;SDS011;33323;52.124;6.018;2023-11-21T09:50:25;56.75;;;22.98;;
47599;SDS011;33323;52.124;6.018;2023-11-21T09:55:52;66.65;;;24.02;;
47599;SDS011;33323;52.124;6.018;2023-11-21T09:58:20;78.30;;;27.15;;
47599;SDS011;33323;52.124;6.018;2023-11-21T10:00:55;57.38;;;21.20;;
47599;SDS011;33323;52.124;6.018;2023-11-21T10:03:25;56.65;;;22.83;;
47599;SDS011;33323;52.124;6.018;2023-11-21T10:05:53;57.60;;;24.55;;
47599;SDS011;33323;52.124;6.018;2023-11-21T10:08:26;57.33;;;21.83;;
47599;SDS011;33323;52.124;6.018;2023-11-21T10:11:12;55.08;;;20.48;;
47599;SDS011;33323;52.124;6.018;2023-11-21T10:13:41;72.30;;;21.20;;
47599;SDS011;33323;52.124;6.018;2023-11-21T10:16:10;54.40;;;20.45;;
47599;SDS011;33323;52.124;6.018;2023-11-21T10:18:42;56.58;;;21.27;;
47599;SDS011;33323;52.124;6.018;2023-11-21T10:21:11;55.17;;;19.77;;
47599;SDS011;33323;52.124;6.018;2023-11-21T10:23:38;58.08;;;21.95;;
47599;SDS011;33323;52.124;6.018;2023-11-21T10:26:06;60.28;;;21.20;;
47599;SDS011;33323;52.124;6.018;2023-11-21T10:28:59;57.42;;;21.58;;
47599;SDS011;33323;52.124;6.018;2023-11-21T10:31:26;56.15;;;21.73;;
47599;SDS011;33323;52.124;6.018;2023-11-21T10:33:54;55.08;;;18.92;;
47599;SDS011;33323;52.124;6.018;2023-11-21T10:36:25;45.60;;;17.50;;
47599;SDS011;33323;52.124;6.018;2023-11-21T10:38:56;45.33;;;17.45;;
47599;SDS011;33323;52.124;6.018;2023-11-21T10:41:23;48.70;;;17.02;;
47599;SDS011;33323;52.124;6.018;2023-11-21T10:43:52;50.42;;;19.60;;
47599;SDS011;33323;52.124;6.018;2023-11-21T10:46:22;53.08;;;20.17;;
47599;SDS011;33323;52.124;6.018;2023-11-21T10:48:53;47.33;;;19.20;;
47599;SDS011;33323;52.124;6.018;2023-11-21T10:51:22;56.10;;;19.13;;
47599;SDS011;33323;52.124;6.018;2023-11-21T10:53:52;51.65;;;21.73;;
47599;SDS011;33323;52.124;6.018;2023-11-21T10:56:19;46.58;;;18.33;;
47599;SDS011;33323;52.124;6.018;2023-11-21T10:58:50;45.65;;;17.15;;
47599;SDS011;33323;52.124;6.018;2023-11-21T11:01:20;39.88;;;17.30;;
47599;SDS011;33323;52.124;6.018;2023-11-21T11:03:51;44.97;;;17.65;;
47599;SDS011;33323;52.124;6.018;2023-11-21T11:06:21;39.15;;;16.95;;
47599;SDS011;33323;52.124;6.018;2023-11-21T11:08:48;41.80;;;16.85;;
47599;SDS011;33323;52.124;6.018;2023-11-21T11:11:16;51.33;;;19.05;;
47599;SDS011;33323;52.124;6.018;2023-11-21T11:13:44;45.60;;;18.25;;
47599;SDS011;33323;52.124;6.018;2023-11-21T11:16:12;48.17;;;18.63;;
47599;SDS011;33323;52.124;6.018;2023-11-21T11:18:44;48.40;;;19.52;;
47599;SDS011;33323;52.124;6.018;2023-11-21T11:24:13;49.10;;;18.45;;
47599;SDS011;33323;52.124;6.018;2023-11-21T11:30:07;47.90;;;19.10;;
47599;SDS011;33323;52.124;6.018;2023-11-21T11:35:57;56.33;;;21.75;;
47599;SDS011;33323;52.124;6.018;2023-11-21T11:38:53;51.22;;;20.80;;
47599;SDS011;33323;52.124;6.018;2023-11-21T11:41:25;56.05;;;20.92;;
47599;SDS011;33323;52.124;6.018;2023-11-21T11:43:59;57.53;;;21.08;;
47599;SDS011;33323;52.124;6.018;2023-11-21T11:46:41;50.55;;;20.30;;
47599;SDS011;33323;52.124;6.018;2023-11-21T11:49:54;53.30;;;19.60;;
47599;SDS011;33323;52.124;6.018;2023-11-21T11:52:40;51.30;;;20.90;;
47599;SDS011;33323;52.124;6.018;2023-11-21T11:55:10;47.80;;;18.60;;
47599;SDS011;33323;52.124;6.018;2023-11-21T12:00:18;44.88;;;18.30;;
47599;SDS011;33323;52.124;6.018;2023-11-21T12:02:57;41.97;;;17.70;;
47599;SDS011;33323;52.124;6.018;2023-11-21T12:05:31;42.58;;;17.42;;
47599;SDS011;33323;52.124;6.018;2023-11-21T12:08:02;39.85;;;17.13;;
47599;SDS011;33323;52.124;6.018;2023-11-21T12:10:31;45.95;;;18.90;;
47599;SDS011;33323;52.124;6.018;2023-11-21T12:13:02;44.03;;;19.48;;
47599;SDS011;33323;52.124;6.018;2023-11-21T12:15:34;39.30;;;17.38;;
47599;SDS011;33323;52.124;6.018;2023-11-21T12:18:08;42.10;;;18.65;;
47599;SDS011;33323;52.124;6.018;2023-11-21T12:20:49;42.17;;;18.20;;
47599;SDS011;33323;52.124;6.018;2023-11-21T12:23:17;39.45;;;17.63;;
47599;SDS011;33323;52.124;6.018;2023-11-21T12:25:44;45.50;;;19.45;;
47599;SDS011;33323;52.124;6.018;2023-11-21T12:28:11;41.75;;;20.27;;
47599;SDS011;33323;52.124;6.018;2023-11-21T12:30:39;39.85;;;17.17;;
47599;SDS011;33323;52.124;6.018;2023-11-21T12:33:06;45.05;;;17.33;;
47599;SDS011;33323;52.124;6.018;2023-11-21T12:35:36;38.58;;;17.58;;
47599;SDS011;33323;52.124;6.018;2023-11-21T12:38:04;34.45;;;15.90;;
47599;SDS011;33323;52.124;6.018;2023-11-21T12:40:32;41.28;;;18.17;;
47599;SDS011;33323;52.124;6.018;2023-11-21T12:42:59;36.03;;;15.93;;
47599;SDS011;33323;52.124;6.018;2023-11-21T12:45:31;36.15;;;16.75;;
47599;SDS011;33323;52.124;6.018;2023-11-21T12:47:59;31.40;;;14.98;;
47599;SDS011;33323;52.124;6.018;2023-11-21T12:50:30;31.50;;;14.98;;
47599;SDS011;33323;52.124;6.018;2023-11-21T12:53:01;32.22;;;15.25;;
47599;SDS011;33323;52.124;6.018;2023-11-21T12:55:38;35.65;;;15.68;;
47599;SDS011;33323;52.124;6.018;2023-11-21T12:58:07;37.53;;;15.15;;
47599;SDS011;33323;52.124;6.018;2023-11-21T13:03:06;29.80;;;13.90;;
47599;SDS011;33323;52.124;6.018;2023-11-21T13:05:36;30.58;;;14.82;;
47599;SDS011;33323;52.124;6.018;2023-11-21T13:08:17;31.67;;;13.85;;
47599;SDS011;33323;52.124;6.018;2023-11-21T13:10:49;28.77;;;12.90;;
47599;SDS011;33323;52.124;6.018;2023-11-21T13:13:24;32.30;;;13.88;;
47599;SDS011;33323;52.124;6.018;2023-11-21T13:15:59;31.77;;;14.32;;
47599;SDS011;33323;52.124;6.018;2023-11-21T13:18:28;27.48;;;10.82;;
47599;SDS011;33323;52.124;6.018;2023-11-21T13:20:58;27.13;;;11.65;;
47599;SDS011;33323;52.124;6.018;2023-11-21T13:23:29;26.27;;;11.43;;
47599;SDS011;33323;52.124;6.018;2023-11-21T13:26:02;34.70;;;13.13;;
47599;SDS011;33323;52.124;6.018;2023-11-21T13:28:33;30.33;;;12.82;;
47599;SDS011;33323;52.124;6.018;2023-11-21T13:31:02;31.52;;;12.73;;
47599;SDS011;33323;52.124;6.018;2023-11-21T13:36:07;35.78;;;14.23;;
47599;SDS011;33323;52.124;6.018;2023-11-21T13:38:36;39.83;;;16.00;;
47599;SDS011;33323;52.124;6.018;2023-11-21T13:41:09;39.45;;;13.68;;
47599;SDS011;33323;52.124;6.018;2023-11-21T13:43:36;35.55;;;13.38;;
47599;SDS011;33323;52.124;6.018;2023-11-21T13:46:04;33.20;;;13.30;;
47599;SDS011;33323;52.124;6.018;2023-11-21T13:48:43;31.38;;;13.70;;
47599;SDS011;33323;52.124;6.018;2023-11-21T13:51:17;34.22;;;13.98;;
47599;SDS011;33323;52.124;6.018;2023-11-21T13:53:45;31.10;;;12.73;;
47599;SDS011;33323;52.124;6.018;2023-11-21T13:56:19;33.88;;;13.50;;
47599;SDS011;33323;52.124;6.018;2023-11-21T13:58:51;34.20;;;13.63;;
47599;SDS011;33323;52.124;6.018;2023-11-21T14:01:20;33.42;;;11.32;;
47599;SDS011;33323;52.124;6.018;2023-11-21T14:04:01;31.63;;;14.00;;
47599;SDS011;33323;52.124;6.018;2023-11-21T14:06:46;27.17;;;12.38;;
47599;SDS011;33323;52.124;6.018;2023-11-21T14:09:16;22.80;;;11.30;;
47599;SDS011;33323;52.124;6.018;2023-11-21T14:11:52;30.05;;;12.30;;
47599;SDS011;33323;52.124;6.018;2023-11-21T14:14:23;23.08;;;10.05;;
47599;SDS011;33323;52.124;6.018;2023-11-21T14:16:52;22.73;;;10.25;;
47599;SDS011;33323;52.124;6.018;2023-11-21T14:19:20;23.85;;;11.75;;
47599;SDS011;33323;52.124;6.018;2023-11-21T14:21:47;24.23;;;12.10;;
47599;SDS011;33323;52.124;6.018;2023-11-21T14:24:19;23.52;;;11.30;;
47599;SDS011;33323;52.124;6.018;2023-11-21T14:26:47;23.58;;;11.38;;
47599;SDS011;33323;52.124;6.018;2023-11-21T14:29:15;25.25;;;12.95;;
47599;SDS011;33323;52.124;6.018;2023-11-21T14:31:47;24.25;;;14.13;;
47599;SDS011;33323;52.124;6.018;2023-11-21T14:34:15;28.63;;;15.73;;
47599;SDS011;33323;52.124;6.018;2023-11-21T14:36:46;24.58;;;13.35;;
47599;SDS011;33323;52.124;6.018;2023-11-21T14:39:15;26.45;;;13.07;;
47599;SDS011;33323;52.124;6.018;2023-11-21T14:41:56;21.17;;;10.85;;
47599;SDS011;33323;52.124;6.018;2023-11-21T14:44:25;21.00;;;11.82;;
47599;SDS011;33323;52.124;6.018;2023-11-21T14:46:55;19.15;;;12.32;;
47599;SDS011;33323;52.124;6.018;2023-11-21T14:49:25;22.13;;;13.18;;
47599;SDS011;33323;52.124;6.018;2023-11-21T14:51:54;22.98;;;13.30;;
47599;SDS011;33323;52.124;6.018;2023-11-21T14:54:30;20.98;;;11.73;;
47599;SDS011;33323;52.124;6.018;2023-11-21T14:57:11;16.15;;;9.90;;